Time;durP1;ratioP1;P1;durP2;ratioP2;P2;SDS_P1;SDS_P2;PMS_P1;PMS_P2;Temp;Humidity;BMP_temperature;BMP_pressure;BME280_temperature;BME280_humidity;BME280_pressure;Samples;Min_cycle;Max_cycle;Signal;HPM_P1;HPM_P2
2020/12/08 00:00:22;;;;;;;5.32;1.90;;;24.00;25.50;;;;;;1040605;28;20017;-73
2020/12/08 00:00:53;;;;;;;5.32;1.98;;;24.00;25.20;;;;;;1040213;28;20381;-73
2020/12/08 00:01:24;;;;;;;8.30;2.10;;;23.90;25.20;;;;;;1037474;28;20014;-73
2020/12/08 00:01:56;;;;;;;5.50;2.20;;;23.90;25.30;;;;;;1034830;28;20177;-74
2020/12/08 00:02:27;;;;;;;4.18;2.00;;;23.90;25.30;;;;;;1036367;28;20033;-72
2020/12/08 00:02:59;;;;;;;4.97;1.95;;;23.80;25.80;;;;;;1036733;28;20090;-73
2020/12/08 00:03:30;;;;;;;6.53;2.05;;;23.90;25.70;;;;;;1039408;28;20057;-73
2020/12/08 00:04:02;;;;;;;4.43;1.98;;;23.80;25.50;;;;;;1037926;28;20341;-73
2020/12/08 00:04:34;;;;;;;6.90;2.22;;;23.80;25.70;;;;;;1039509;28;20113;-73
2020/12/08 00:05:06;;;;;;;6.50;2.17;;;23.80;25.80;;;;;;1038173;28;20017;-73
2020/12/08 00:05:38;;;;;;;2.85;1.67;;;23.80;25.80;;;;;;1036331;28;20014;-73
2020/12/08 00:06:09;;;;;;;5.35;1.95;;;23.80;26.00;;;;;;1036349;28;20076;-73
2020/12/08 00:06:41;;;;;;;5.55;2.00;;;23.80;25.70;;;;;;1042936;28;20034;-73
2020/12/08 00:07:13;;;;;;;9.15;2.00;;;23.70;25.40;;;;;;1044792;28;20324;-73
2020/12/08 00:07:44;;;;;;;14.55;2.40;;;23.70;25.50;;;;;;1044816;28;20013;-73
2020/12/08 00:08:16;;;;;;;7.63;2.20;;;23.60;25.30;;;;;;1039532;28;20071;-73
2020/12/08 00:08:47;;;;;;;5.00;1.90;;;23.60;25.50;;;;;;1038078;28;20018;-72
2020/12/08 00:09:19;;;;;;;7.85;2.20;;;23.60;25.30;;;;;;1040553;28;20050;-72
2020/12/08 00:09:50;;;;;;;3.92;2.03;;;23.60;25.60;;;;;;1040751;28;20041;-72
2020/12/08 00:10:22;;;;;;;7.25;2.20;;;23.60;25.90;;;;;;1036939;28;20026;-72
2020/12/08 00:10:53;;;;;;;4.43;2.30;;;23.60;25.50;;;;;;1040074;28;20018;-73
2020/12/08 00:11:25;;;;;;;2.53;1.70;;;23.60;25.40;;;;;;1033025;28;20057;-72
2020/12/08 00:11:56;;;;;;;5.70;2.25;;;23.50;25.30;;;;;;1032294;28;20085;-73
2020/12/08 00:12:28;;;;;;;3.30;2.13;;;23.50;25.50;;;;;;1032389;28;20026;-72
2020/12/08 00:13:00;;;;;;;4.82;2.03;;;23.50;25.60;;;;;;1036980;28;20010;-72
2020/12/08 00:13:31;;;;;;;4.90;2.15;;;23.50;25.90;;;;;;1040606;28;20024;-73
2020/12/08 00:14:03;;;;;;;5.50;2.10;;;23.50;26.10;;;;;;1040096;28;20025;-73
2020/12/08 00:14:34;;;;;;;6.55;2.00;;;23.50;26.40;;;;;;1038380;28;20428;-73
2020/12/08 00:15:06;;;;;;;5.82;2.03;;;23.40;25.80;;;;;;1037678;28;20029;-73
2020/12/08 00:15:37;;;;;;;7.63;2.40;;;23.40;25.50;;;;;;1035593;28;20041;-73
2020/12/08 00:16:09;;;;;;;5.38;1.95;;;23.40;25.30;;;;;;1034638;28;20495;-74
2020/12/08 00:16:41;;;;;;;5.95;2.10;;;23.40;25.60;;;;;;1037324;28;20018;-72
2020/12/08 00:17:12;;;;;;;5.80;2.22;;;23.40;25.70;;;;;;1035654;28;20037;-72
2020/12/08 00:17:46;;;;;;;8.10;2.40;;;23.40;25.90;;;;;;1037226;28;20026;-73
2020/12/08 00:18:17;;;;;;;7.47;2.00;;;23.30;25.80;;;;;;1039285;28;20022;-73
2020/12/08 00:18:48;;;;;;;7.25;2.10;;;23.30;26.00;;;;;;1038009;28;20156;-73
2020/12/08 00:19:20;;;;;;;5.15;2.20;;;23.30;26.30;;;;;;1038225;28;20116;-73
2020/12/08 00:19:52;;;;;;;4.10;2.10;;;23.30;26.00;;;;;;1036864;28;20037;-72
2020/12/08 00:20:23;;;;;;;2.83;1.92;;;23.30;26.10;;;;;;1041028;28;20075;-73
2020/12/08 00:20:55;;;;;;;3.38;2.00;;;23.20;25.90;;;;;;1039739;28;20029;-73
2020/12/08 00:21:26;;;;;;;7.25;2.60;;;23.20;26.00;;;;;;1033232;28;20034;-73
2020/12/08 00:21:58;;;;;;;4.70;2.03;;;23.20;25.80;;;;;;1040454;28;20486;-73
2020/12/08 00:22:29;;;;;;;4.78;2.10;;;23.20;25.80;;;;;;1037378;28;20024;-73
2020/12/08 00:23:01;;;;;;;6.18;2.10;;;23.10;26.00;;;;;;1037078;28;20099;-73
2020/12/08 00:23:32;;;;;;;3.92;1.95;;;23.10;26.10;;;;;;1039061;28;20030;-73
2020/12/08 00:24:04;;;;;;;4.68;2.00;;;23.10;26.20;;;;;;1041900;28;20133;-73
2020/12/08 00:24:35;;;;;;;6.80;2.40;;;23.10;25.60;;;;;;1037043;28;20033;-73
2020/12/08 00:25:08;;;;;;;4.82;2.05;;;23.00;25.80;;;;;;1039128;28;20021;-72
2020/12/08 00:25:42;;;;;;;7.82;2.20;;;23.00;25.70;;;;;;1040705;28;20410;-73
2020/12/08 00:26:14;;;;;;;7.03;2.53;;;23.00;26.10;;;;;;1040944;28;20487;-72
2020/12/08 00:26:45;;;;;;;6.40;2.20;;;23.00;26.20;;;;;;1039941;28;20436;-72
2020/12/08 00:27:17;;;;;;;7.60;2.30;;;23.00;26.20;;;;;;1038545;28;20447;-73
2020/12/08 00:27:48;;;;;;;4.68;2.33;;;22.90;26.20;;;;;;1039600;28;20018;-73
2020/12/08 00:28:20;;;;;;;3.13;2.20;;;22.90;26.10;;;;;;1039708;28;20022;-73
2020/12/08 00:28:51;;;;;;;6.13;2.13;;;22.90;26.20;;;;;;1041025;28;20025;-72
2020/12/08 00:29:23;;;;;;;3.88;2.05;;;22.80;26.00;;;;;;1041085;28;20009;-72
2020/12/08 00:29:54;;;;;;;3.22;2.03;;;22.80;26.30;;;;;;1039500;28;20103;-72
2020/12/08 00:30:25;;;;;;;6.22;2.28;;;22.80;26.20;;;;;;1040840;28;20057;-73
2020/12/08 00:30:57;;;;;;;4.38;2.20;;;22.80;26.40;;;;;;1037124;28;20026;-73
2020/12/08 00:31:28;;;;;;;3.90;2.30;;;22.80;26.50;;;;;;1037033;28;20030;-73
2020/12/08 00:32:00;;;;;;;5.13;2.22;;;22.80;26.50;;;;;;1040256;28;20080;-73
2020/12/08 00:32:31;;;;;;;4.57;2.40;;;22.70;26.60;;;;;;1038642;28;20022;-74
2020/12/08 00:33:03;;;;;;;6.00;2.42;;;22.70;26.80;;;;;;1038137;28;20022;-73
2020/12/08 00:33:34;;;;;;;9.13;2.30;;;22.70;26.70;;;;;;1040223;28;20017;-73
2020/12/08 00:34:06;;;;;;;5.80;2.40;;;22.60;27.60;;;;;;1037554;28;20018;-73
2020/12/08 00:34:38;;;;;;;5.38;2.38;;;22.60;27.30;;;;;;1037219;28;20018;-73
2020/12/08 00:35:11;;;;;;;8.57;2.50;;;22.50;27.50;;;;;;1037071;28;20447;-73
2020/12/08 00:35:43;;;;;;;4.57;2.10;;;22.40;27.70;;;;;;1039732;28;20041;-73
2020/12/08 00:36:14;;;;;;;6.63;2.60;;;22.30;28.00;;;;;;1038647;28;20482;-73
2020/12/08 00:36:46;;;;;;;8.95;2.67;;;22.30;28.20;;;;;;1037056;28;20026;-72
2020/12/08 00:37:17;;;;;;;5.30;2.22;;;22.30;28.20;;;;;;1036983;28;20025;-73
2020/12/08 00:37:49;;;;;;;8.50;2.40;;;22.20;28.20;;;;;;1033449;28;20026;-72
2020/12/08 00:38:20;;;;;;;7.15;2.40;;;22.10;28.20;;;;;;1032163;28;20065;-72
2020/12/08 00:38:52;;;;;;;8.32;2.83;;;22.00;28.50;;;;;;1034155;28;20028;-72
2020/12/08 00:39:24;;;;;;;6.50;2.78;;;22.00;28.50;;;;;;1033702;28;20407;-72
2020/12/08 00:39:55;;;;;;;5.88;2.58;;;21.90;28.40;;;;;;1038552;28;20520;-72
2020/12/08 00:40:27;;;;;;;6.47;2.50;;;21.90;28.50;;;;;;1038632;28;20040;-73
2020/12/08 00:40:58;;;;;;;4.75;2.05;;;21.80;28.40;;;;;;1037762;28;20105;-73
2020/12/08 00:41:30;;;;;;;8.30;2.20;;;21.80;28.50;;;;;;1036968;28;20036;-72
2020/12/08 00:42:01;;;;;;;7.57;2.47;;;21.70;28.70;;;;;;1036502;28;20022;-72
2020/12/08 00:42:33;;;;;;;7.47;2.40;;;21.60;28.90;;;;;;1040343;28;20028;-71
2020/12/08 00:43:04;;;;;;;7.32;2.50;;;21.40;29.10;;;;;;1037679;28;20486;-72
2020/12/08 00:43:36;;;;;;;6.63;2.30;;;21.30;29.20;;;;;;1038133;28;20022;-72
2020/12/08 00:44:07;;;;;;;4.50;2.20;;;21.30;29.20;;;;;;1039605;28;20380;-71
2020/12/08 00:44:39;;;;;;;7.55;2.10;;;21.20;29.30;;;;;;1038742;28;20498;-72
2020/12/08 00:45:11;;;;;;;5.75;2.08;;;21.20;29.30;;;;;;1040772;28;20384;-72
2020/12/08 00:45:44;;;;;;;7.05;2.08;;;21.10;29.20;;;;;;1037869;28;20509;-72
2020/12/08 00:46:17;;;;;;;6.50;2.17;;;21.10;29.30;;;;;;1036746;28;20010;-72
2020/12/08 00:46:50;;;;;;;5.82;2.10;;;21.00;29.40;;;;;;1039584;28;20097;-72
2020/12/08 00:47:22;;;;;;;4.65;2.20;;;21.00;29.40;;;;;;1038667;28;20040;-72
2020/12/08 00:47:53;;;;;;;8.23;2.13;;;20.90;29.40;;;;;;1039762;28;20024;-72
2020/12/08 00:48:24;;;;;;;4.60;2.00;;;20.90;29.50;;;;;;1040502;28;20014;-71
2020/12/08 00:48:56;;;;;;;4.93;2.20;;;20.80;29.60;;;;;;1039588;28;20021;-71
2020/12/08 00:49:27;;;;;;;4.93;2.08;;;20.70;29.70;;;;;;1038078;28;20052;-71
2020/12/08 00:49:59;;;;;;;2.95;1.95;;;20.70;29.80;;;;;;1039053;28;20033;-71
2020/12/08 00:50:30;;;;;;;3.97;2.17;;;20.70;29.90;;;;;;1037139;28;20014;-73
2020/12/08 00:51:02;;;;;;;5.95;2.13;;;20.60;30.00;;;;;;1040946;28;20013;-72
2020/12/08 00:51:34;;;;;;;5.63;2.20;;;20.50;30.10;;;;;;1037888;28;20112;-71
2020/12/08 00:52:05;;;;;;;3.47;1.92;;;20.50;30.20;;;;;;1038558;28;20014;-72
2020/12/08 00:52:37;;;;;;;4.70;2.00;;;20.50;30.30;;;;;;1039883;28;20030;-72
2020/12/08 00:53:08;;;;;;;5.40;1.90;;;20.40;30.30;;;;;;1040864;28;20029;-71
2020/12/08 00:53:40;;;;;;;4.60;1.92;;;20.40;30.30;;;;;;1040212;28;20013;-72
2020/12/08 00:54:11;;;;;;;4.13;1.67;;;20.30;30.30;;;;;;1040525;28;20382;-72
2020/12/08 00:54:42;;;;;;;6.13;2.05;;;20.30;30.40;;;;;;1041228;28;20432;-72
2020/12/08 00:55:14;;;;;;;5.88;2.10;;;20.30;30.60;;;;;;1040300;28;20064;-72
2020/12/08 00:55:45;;;;;;;3.30;2.10;;;20.20;30.60;;;;;;1040637;28;20030;-72
2020/12/08 00:56:17;;;;;;;6.65;2.25;;;20.10;30.50;;;;;;1042115;28;20366;-71
2020/12/08 00:56:48;;;;;;;4.53;2.08;;;20.10;30.50;;;;;;1040911;28;20025;-72
2020/12/08 00:57:21;;;;;;;6.15;2.13;;;20.00;30.40;;;;;;1040855;28;20431;-72
2020/12/08 00:57:53;;;;;;;5.18;1.95;;;19.90;30.60;;;;;;1040251;28;20344;-71
2020/12/08 00:58:25;;;;;;;5.32;2.05;;;19.80;30.80;;;;;;1041449;28;20022;-72
2020/12/08 00:58:57;;;;;;;6.30;2.40;;;19.70;30.80;;;;;;1047886;28;20481;-75
2020/12/08 00:59:29;;;;;;;6.55;2.40;;;19.70;31.00;;;;;;1045064;28;20021;-72
2020/12/08 01:00:00;;;;;;;4.65;1.98;;;19.70;31.10;;;;;;1041826;28;20013;-72
2020/12/08 01:00:32;;;;;;;11.90;2.35;;;19.70;31.30;;;;;;1039705;28;20344;-72
2020/12/08 01:01:08;;;;;;;4.47;2.03;;;19.70;31.70;;;;;;1035147;28;20118;-72
2020/12/08 01:01:41;;;;;;;3.75;1.88;;;19.70;31.30;;;;;;1038099;28;20044;-72
2020/12/08 01:02:17;;;;;;;6.88;2.20;;;19.60;31.10;;;;;;1035648;28;20321;-72
2020/12/08 01:02:49;;;;;;;6.72;2.22;;;19.50;31.00;;;;;;1038425;28;20344;-72
2020/12/08 01:03:20;;;;;;;6.10;2.30;;;19.50;30.90;;;;;;1040056;28;20013;-71
2020/12/08 01:03:52;;;;;;;5.28;2.10;;;19.50;30.90;;;;;;1038603;28;20072;-73
2020/12/08 01:04:23;;;;;;;7.90;2.15;;;19.50;31.40;;;;;;1041040;28;20014;-73
2020/12/08 01:04:55;;;;;;;4.20;2.20;;;19.40;31.40;;;;;;1038732;28;20014;-72
2020/12/08 01:05:26;;;;;;;6.22;2.00;;;19.30;31.60;;;;;;1036621;28;20018;-73
2020/12/08 01:05:59;;;;;;;6.25;2.10;;;19.20;32.40;;;;;;1037483;28;20010;-73
2020/12/08 01:06:30;;;;;;;5.15;2.10;;;19.20;32.20;;;;;;1031911;28;20022;-73
2020/12/08 01:07:02;;;;;;;5.15;2.15;;;19.20;31.90;;;;;;1034760;28;20018;-73
2020/12/08 01:07:33;;;;;;;12.57;2.60;;;19.20;31.80;;;;;;1036986;28;20017;-73
2020/12/08 01:08:05;;;;;;;13.00;2.45;;;19.10;32.00;;;;;;1038008;28;20091;-73
2020/12/08 01:08:36;;;;;;;7.50;2.30;;;19.10;32.20;;;;;;1040224;28;21342;-73
2020/12/08 01:09:09;;;;;;;4.90;2.28;;;19.10;32.20;;;;;;1040954;28;20018;-73
2020/12/08 01:09:41;;;;;;;6.32;2.15;;;19.10;32.30;;;;;;1038950;28;20068;-73
2020/12/08 01:10:12;;;;;;;8.40;2.30;;;19.10;32.30;;;;;;1040926;28;20080;-73
2020/12/08 01:10:44;;;;;;;8.73;2.40;;;19.00;32.30;;;;;;1041770;28;20014;-73
2020/12/08 01:11:15;;;;;;;4.70;2.03;;;19.00;32.20;;;;;;1036637;28;20176;-73
2020/12/08 01:11:47;;;;;;;5.20;2.33;;;19.00;32.20;;;;;;1036467;28;20018;-73
2020/12/08 01:12:18;;;;;;;4.10;2.03;;;18.90;32.20;;;;;;1037303;28;20348;-73
2020/12/08 01:12:50;;;;;;;6.03;2.50;;;18.90;32.30;;;;;;1044249;28;20009;-72
2020/12/08 01:13:21;;;;;;;6.90;2.40;;;18.90;32.30;;;;;;1045182;28;20013;-72
2020/12/08 01:13:53;;;;;;;4.55;2.10;;;18.90;32.30;;;;;;1045364;28;20097;-73
2020/12/08 01:14:25;;;;;;;4.63;2.25;;;18.90;32.30;;;;;;1045241;28;20021;-73
2020/12/08 01:14:56;;;;;;;6.05;2.50;;;18.80;32.20;;;;;;1038187;28;20474;-73
2020/12/08 01:15:29;;;;;;;5.70;2.30;;;18.80;32.10;;;;;;1037178;28;20049;-73
2020/12/08 01:16:03;;;;;;;4.18;2.30;;;18.80;32.20;;;;;;1038112;28;20105;-72
2020/12/08 01:16:35;;;;;;;4.82;2.20;;;18.80;32.10;;;;;;1040151;28;20356;-73
2020/12/08 01:17:07;;;;;;;5.60;2.42;;;18.80;32.10;;;;;;1036632;28;20029;-72
2020/12/08 01:17:38;;;;;;;4.82;2.10;;;18.80;32.10;;;;;;1034946;28;20543;-73
2020/12/08 01:18:10;;;;;;;4.40;2.20;;;18.80;32.10;;;;;;1032630;28;20026;-72
2020/12/08 01:18:41;;;;;;;6.07;2.03;;;18.70;32.20;;;;;;1037417;28;20013;-72
2020/12/08 01:19:13;;;;;;;3.92;2.30;;;18.70;32.40;;;;;;1034387;28;20014;-72
2020/12/08 01:19:44;;;;;;;5.25;2.35;;;18.70;32.60;;;;;;1035112;28;20014;-72
2020/12/08 01:20:16;;;;;;;5.72;2.63;;;18.60;32.60;;;;;;1037861;28;20535;-72
2020/12/08 01:20:47;;;;;;;4.15;2.20;;;18.60;32.70;;;;;;1037931;28;20411;-73
2020/12/08 01:21:19;;;;;;;6.90;2.20;;;18.50;32.80;;;;;;1037740;28;20018;-73
2020/12/08 01:21:54;;;;;;;5.13;2.35;;;18.50;32.70;;;;;;1037509;28;20026;-73
2020/12/08 01:22:25;;;;;;;6.60;2.25;;;18.40;32.70;;;;;;1037913;28;20505;-73
2020/12/08 01:22:56;;;;;;;6.35;2.20;;;18.40;32.80;;;;;;1036465;28;20029;-73
2020/12/08 01:23:28;;;;;;;5.63;2.22;;;18.30;32.70;;;;;;1037494;28;20502;-73
2020/12/08 01:24:00;;;;;;;6.13;2.40;;;18.30;32.80;;;;;;1036792;28;20014;-72
2020/12/08 01:24:31;;;;;;;6.63;2.10;;;18.20;32.80;;;;;;1036993;28;20006;-72
2020/12/08 01:25:03;;;;;;;4.57;2.40;;;18.20;32.90;;;;;;1037530;28;20029;-73
2020/12/08 01:25:35;;;;;;;5.65;2.20;;;18.20;33.00;;;;;;1037999;28;20013;-73
2020/12/08 01:26:06;;;;;;;5.88;2.40;;;18.10;33.80;;;;;;1037577;28;20049;-72
2020/12/08 01:26:38;;;;;;;4.80;2.20;;;18.00;33.40;;;;;;1036719;28;20029;-72
2020/12/08 01:27:09;;;;;;;6.53;2.28;;;17.90;33.30;;;;;;1036491;28;20014;-74
2020/12/08 01:27:40;;;;;;;7.50;2.38;;;17.90;33.40;;;;;;1038154;28;20336;-71
2020/12/08 01:28:12;;;;;;;3.20;2.10;;;17.80;33.60;;;;;;1039887;28;20080;-72
2020/12/08 01:28:43;;;;;;;5.13;2.15;;;17.80;33.90;;;;;;1040929;28;20032;-72
2020/12/08 01:29:15;;;;;;;7.82;2.45;;;17.60;33.90;;;;;;1042969;28;20027;-71
2020/12/08 01:29:46;;;;;;;8.57;2.45;;;17.70;34.10;;;;;;1039509;28;20100;-71
2020/12/08 01:30:18;;;;;;;5.78;2.80;;;17.60;34.10;;;;;;1039743;28;20117;-71
2020/12/08 01:30:49;;;;;;;6.88;2.33;;;17.60;34.20;;;;;;1041073;28;20049;-71
2020/12/08 01:31:29;;;;;;;7.80;2.10;;;17.60;34.40;;;;;;1036767;28;20014;-71
2020/12/08 01:32:00;;;;;;;5.00;2.17;;;17.50;34.30;;;;;;1037517;28;20025;-71
2020/12/08 01:32:32;;;;;;;4.30;1.95;;;17.50;34.80;;;;;;1038700;28;20052;-72
2020/12/08 01:33:03;;;;;;;8.65;2.60;;;17.40;34.40;;;;;;1040098;28;20013;-71
2020/12/08 01:33:35;;;;;;;7.57;2.28;;;17.40;34.50;;;;;;1036555;28;20010;-71
2020/12/08 01:34:09;;;;;;;3.00;1.95;;;17.40;34.60;;;;;;1032512;28;20022;-71
2020/12/08 01:34:41;;;;;;;8.30;2.50;;;17.40;34.50;;;;;;1033577;28;20014;-71
2020/12/08 01:35:12;;;;;;;4.65;2.05;;;17.30;34.50;;;;;;1037536;28;20020;-72
2020/12/08 01:35:44;;;;;;;8.75;2.15;;;17.30;34.40;;;;;;1040570;28;20339;-71
2020/12/08 01:36:18;;;;;;;4.93;2.05;;;17.20;34.70;;;;;;1044779;28;20016;-72
2020/12/08 01:36:52;;;;;;;4.95;2.30;;;17.20;34.90;;;;;;1045173;28;20393;-72
2020/12/08 01:37:23;;;;;;;9.13;2.50;;;17.20;34.90;;;;;;1044521;28;20096;-72
2020/12/08 01:37:55;;;;;;;4.07;2.10;;;17.20;34.90;;;;;;1039369;28;20459;-72
2020/12/08 01:38:26;;;;;;;6.20;2.53;;;17.10;34.90;;;;;;1037048;28;20109;-73
2020/12/08 01:38:58;;;;;;;7.38;2.70;;;17.10;35.00;;;;;;1040229;28;20025;-72
2020/12/08 01:39:29;;;;;;;4.70;2.30;;;17.10;34.90;;;;;;1038889;28;20048;-72
2020/12/08 01:40:01;;;;;;;5.63;2.30;;;17.10;35.10;;;;;;1038523;28;20036;-72
2020/12/08 01:40:32;;;;;;;10.35;2.42;;;17.00;34.80;;;;;;1032560;28;20029;-72
2020/12/08 01:41:03;;;;;;;7.55;2.40;;;17.00;34.70;;;;;;1036859;28;20047;-73
2020/12/08 01:41:36;;;;;;;6.60;2.55;;;17.00;34.90;;;;;;1036712;28;20025;-73
2020/12/08 01:42:08;;;;;;;5.35;2.50;;;17.00;35.20;;;;;;1036722;28;20021;-74
2020/12/08 01:42:39;;;;;;;6.43;2.60;;;17.00;35.20;;;;;;1036908;28;20028;-73
2020/12/08 01:43:11;;;;;;;9.07;2.40;;;17.00;35.10;;;;;;1040610;28;20017;-72
2020/12/08 01:43:50;;;;;;;5.22;2.10;;;17.00;35.10;;;;;;1040709;28;20396;-72
2020/12/08 01:44:22;;;;;;;8.35;2.70;;;17.00;35.60;;;;;;1040660;28;20021;-72
2020/12/08 01:44:54;;;;;;;4.80;2.40;;;16.90;34.90;;;;;;1039226;28;20363;-72
2020/12/08 01:45:25;;;;;;;7.28;2.38;;;16.90;34.80;;;;;;1032898;28;20453;-74
2020/12/08 01:45:57;;;;;;;6.43;2.40;;;16.90;35.10;;;;;;1037674;28;20464;-72
2020/12/08 01:46:31;;;;;;;6.72;2.90;;;16.80;35.00;;;;;;1044070;28;20017;-72
2020/12/08 01:47:04;;;;;;;6.72;2.45;;;16.80;35.10;;;;;;1040474;28;20044;-72
2020/12/08 01:47:35;;;;;;;5.18;2.38;;;16.80;35.00;;;;;;1036918;28;20018;-73
2020/12/08 01:48:07;;;;;;;8.35;2.70;;;16.80;35.10;;;;;;1036637;28;20352;-72
2020/12/08 01:48:38;;;;;;;6.18;2.38;;;16.80;35.00;;;;;;1032500;28;20026;-72
2020/12/08 01:49:10;;;;;;;6.63;2.55;;;16.70;35.00;;;;;;1032702;28;20022;-73
2020/12/08 01:49:46;;;;;;;7.00;2.60;;;16.70;35.00;;;;;;1033211;28;20034;-72
2020/12/08 01:50:19;;;;;;;12.90;2.70;;;16.70;34.90;;;;;;1036209;28;20117;-72
2020/12/08 01:50:51;;;;;;;8.40;2.67;;;16.70;34.80;;;;;;1036550;28;20414;-73
2020/12/08 01:51:23;;;;;;;6.85;2.53;;;16.60;34.80;;;;;;1036676;28;20363;-72
2020/12/08 01:51:55;;;;;;;7.15;2.70;;;16.60;34.90;;;;;;1036603;28;20018;-72
2020/12/08 01:52:27;;;;;;;7.22;2.80;;;16.60;35.00;;;;;;1039472;28;20010;-72
2020/12/08 01:52:59;;;;;;;6.88;2.60;;;16.60;35.10;;;;;;1042072;28;20025;-71
2020/12/08 01:53:30;;;;;;;5.45;2.45;;;16.50;35.80;;;;;;1040815;28;20022;-72
2020/12/08 01:54:02;;;;;;;6.43;2.60;;;16.50;35.30;;;;;;1038133;28;20387;-72
2020/12/08 01:54:33;;;;;;;5.15;2.78;;;16.50;35.40;;;;;;1041920;28;20325;-72
2020/12/08 01:55:05;;;;;;;8.75;2.83;;;16.50;35.60;;;;;;1044270;28;20031;-72
2020/12/08 01:55:38;;;;;;;7.97;2.60;;;16.50;35.50;;;;;;1044995;28;20542;-72
2020/12/08 01:56:11;;;;;;;8.13;2.70;;;16.50;35.50;;;;;;1044114;28;20455;-72
2020/12/08 01:56:43;;;;;;;8.25;2.63;;;16.50;35.50;;;;;;1037888;28;20104;-71
2020/12/08 01:57:14;;;;;;;5.70;2.60;;;16.50;35.40;;;;;;1039927;28;20061;-72
2020/12/08 01:57:46;;;;;;;6.70;2.50;;;16.50;35.70;;;;;;1036698;28;20050;-72
2020/12/08 01:58:20;;;;;;;8.65;2.40;;;16.50;35.70;;;;;;1036577;28;20026;-72
2020/12/08 01:58:51;;;;;;;9.32;2.75;;;16.50;36.10;;;;;;1042047;28;20447;-71
2020/12/08 01:59:23;;;;;;;4.15;2.60;;;16.50;35.50;;;;;;1040693;28;20105;-72
2020/12/08 01:59:54;;;;;;;6.82;2.78;;;16.50;35.30;;;;;;1037388;28;20036;-71
2020/12/08 02:00:26;;;;;;;9.02;2.70;;;16.40;35.20;;;;;;1039578;28;20025;-71
2020/12/08 02:00:58;;;;;;;5.40;2.53;;;16.40;35.50;;;;;;1039395;28;20419;-72
2020/12/08 02:01:29;;;;;;;4.32;2.60;;;16.40;35.40;;;;;;1043850;28;20075;-72
2020/12/08 02:02:01;;;;;;;6.68;2.40;;;16.40;35.20;;;;;;1041705;28;20128;-72
2020/12/08 02:02:33;;;;;;;6.80;2.72;;;16.40;35.20;;;;;;1044838;28;20021;-72
2020/12/08 02:03:04;;;;;;;7.15;2.50;;;16.40;35.20;;;;;;1040763;28;20116;-73
2020/12/08 02:03:36;;;;;;;5.30;2.80;;;16.40;35.30;;;;;;1040699;28;20021;-75
2020/12/08 02:04:07;;;;;;;4.28;2.40;;;16.40;35.20;;;;;;1041624;28;20025;-73
2020/12/08 02:04:39;;;;;;;5.65;2.65;;;16.40;35.30;;;;;;1043993;28;20486;-74
2020/12/08 02:05:11;;;;;;;5.55;2.70;;;16.40;35.30;;;;;;1036480;28;20018;-73
2020/12/08 02:05:43;;;;;;;7.25;2.78;;;16.40;35.40;;;;;;1036622;28;20443;-73
2020/12/08 02:06:15;;;;;;;6.78;2.60;;;16.50;35.30;;;;;;1039993;28;20101;-73
2020/12/08 02:06:46;;;;;;;12.20;2.65;;;16.50;35.30;;;;;;1044862;28;20012;-72
2020/12/08 02:07:18;;;;;;;6.40;2.38;;;16.50;35.40;;;;;;1043344;28;20075;-72
2020/12/08 02:07:49;;;;;;;5.38;2.60;;;16.50;35.40;;;;;;1042718;28;20013;-72
2020/12/08 02:08:28;;;;;;;4.63;2.22;;;16.50;35.40;;;;;;1040691;28;20102;-73
2020/12/08 02:08:59;;;;;;;6.57;2.80;;;16.40;35.40;;;;;;1041098;28;20009;-73
2020/12/08 02:09:33;;;;;;;4.93;2.22;;;16.40;35.50;;;;;;1044825;28;20043;-73
2020/12/08 02:10:05;;;;;;;6.68;2.60;;;16.40;35.50;;;;;;1039920;28;20021;-73
2020/12/08 02:10:37;;;;;;;5.80;2.38;;;16.40;35.60;;;;;;1037852;28;20030;-73
2020/12/08 02:11:08;;;;;;;7.35;2.60;;;16.40;35.70;;;;;;1037016;28;20049;-72
2020/12/08 02:11:40;;;;;;;6.68;2.30;;;16.40;35.80;;;;;;1039207;28;20033;-73
2020/12/08 02:12:11;;;;;;;7.72;2.45;;;16.30;36.00;;;;;;1038331;28;20018;-72
2020/12/08 02:12:45;;;;;;;5.60;2.30;;;16.30;36.10;;;;;;1037752;28;20021;-72
2020/12/08 02:13:17;;;;;;;2.88;2.08;;;16.30;36.10;;;;;;1037502;28;20120;-73
2020/12/08 02:13:49;;;;;;;4.88;2.42;;;16.30;35.90;;;;;;1037656;28;20493;-73
2020/12/08 02:14:20;;;;;;;6.05;2.30;;;16.30;35.90;;;;;;1036861;28;20022;-73
2020/12/08 02:14:52;;;;;;;6.85;2.30;;;16.30;36.10;;;;;;1036699;28;20415;-73
2020/12/08 02:15:23;;;;;;;5.03;2.33;;;16.30;36.10;;;;;;1040989;28;20874;-73
2020/12/08 02:15:55;;;;;;;7.75;2.55;;;16.40;36.00;;;;;;1040865;28;20402;-73
2020/12/08 02:16:26;;;;;;;5.85;2.30;;;16.30;35.80;;;;;;1041270;28;20017;-73
2020/12/08 02:16:58;;;;;;;15.13;2.83;;;16.40;35.80;;;;;;1038251;28;20029;-73
2020/12/08 02:17:29;;;;;;;5.53;2.20;;;16.30;35.90;;;;;;1038134;28;20018;-73
2020/12/08 02:18:01;;;;;;;4.57;2.40;;;16.40;36.00;;;;;;1043328;28;20028;-73
2020/12/08 02:18:32;;;;;;;5.50;2.60;;;16.40;36.00;;;;;;1037510;28;20029;-73
2020/12/08 02:19:04;;;;;;;5.20;2.40;;;16.30;36.00;;;;;;1038469;28;20072;-73
2020/12/08 02:19:36;;;;;;;4.32;2.30;;;16.30;36.00;;;;;;1040733;28;20351;-73
2020/12/08 02:20:07;;;;;;;4.03;2.33;;;16.20;36.00;;;;;;1038722;28;20017;-73
2020/12/08 02:20:39;;;;;;;11.13;2.88;;;16.20;36.10;;;;;;1040475;28;20021;-73
2020/12/08 02:21:11;;;;;;;10.65;2.70;;;16.10;36.10;;;;;;1041707;28;20053;-72
2020/12/08 02:21:42;;;;;;;7.60;2.60;;;16.10;36.20;;;;;;1039509;28;20031;-73
2020/12/08 02:22:14;;;;;;;5.90;2.60;;;16.10;36.30;;;;;;1040940;28;20017;-73
2020/12/08 02:22:45;;;;;;;6.38;2.60;;;16.00;36.20;;;;;;1037281;28;20052;-73
2020/12/08 02:23:16;;;;;;;3.80;2.25;;;16.00;36.20;;;;;;1040047;28;20082;-72
2020/12/08 02:23:51;;;;;;;4.88;2.47;;;16.00;36.30;;;;;;1036392;28;20464;-73
2020/12/08 02:24:22;;;;;;;6.25;2.50;;;16.00;36.30;;;;;;1036469;28;20010;-73
2020/12/08 02:24:54;;;;;;;6.35;2.60;;;16.00;36.00;;;;;;1036441;28;20032;-72
2020/12/08 02:25:25;;;;;;;4.53;2.05;;;16.00;36.00;;;;;;1040174;28;20101;-73
2020/12/08 02:26:05;;;;;;;7.82;2.47;;;16.00;36.00;;;;;;1040782;28;20056;-73
2020/12/08 02:26:36;;;;;;;9.40;2.50;;;16.00;36.00;;;;;;1040320;28;20018;-73
2020/12/08 02:27:08;;;;;;;7.25;2.50;;;16.10;35.90;;;;;;1040602;28;20258;-73
2020/12/08 02:27:39;;;;;;;8.23;2.70;;;16.00;36.00;;;;;;1038733;28;20356;-73
2020/12/08 02:28:11;;;;;;;8.15;2.47;;;16.00;35.90;;;;;;1038975;28;20009;-73
2020/12/08 02:28:42;;;;;;;7.18;2.60;;;16.00;35.90;;;;;;1035839;28;20202;-72
2020/12/08 02:29:14;;;;;;;8.70;2.83;;;16.00;36.10;;;;;;1035833;28;20029;-73
2020/12/08 02:29:45;;;;;;;5.50;2.80;;;16.10;36.00;;;;;;1037087;28;20001;-73
2020/12/08 02:30:17;;;;;;;7.72;2.85;;;16.10;35.90;;;;;;1042341;28;20040;-73
2020/12/08 02:30:48;;;;;;;5.13;2.65;;;16.00;35.80;;;;;;1040711;28;20403;-73
2020/12/08 02:31:20;;;;;;;6.72;2.90;;;16.00;35.80;;;;;;1040870;28;20087;-73
2020/12/08 02:31:52;;;;;;;6.50;2.80;;;16.00;35.80;;;;;;1042326;28;20093;-73
2020/12/08 02:32:24;;;;;;;7.88;3.08;;;16.00;35.90;;;;;;1044756;28;20019;-72
2020/12/08 02:32:55;;;;;;;8.00;3.00;;;16.00;35.90;;;;;;1044726;28;20081;-72
2020/12/08 02:33:29;;;;;;;8.80;3.17;;;16.00;36.00;;;;;;1044626;28;20013;-72
2020/12/08 02:34:00;;;;;;;8.45;2.90;;;15.90;36.00;;;;;;1044718;28;20020;-72
2020/12/08 02:34:32;;;;;;;9.23;2.90;;;15.90;35.90;;;;;;1038072;28;20024;-72
2020/12/08 02:35:03;;;;;;;6.15;2.83;;;15.90;36.00;;;;;;1033762;28;20022;-73
2020/12/08 02:35:35;;;;;;;6.18;2.97;;;15.90;36.10;;;;;;1041186;28;20435;-73
2020/12/08 02:36:06;;;;;;;7.50;2.97;;;15.90;36.00;;;;;;1036725;28;20014;-73
2020/12/08 02:36:38;;;;;;;7.03;2.80;;;15.90;36.10;;;;;;1036970;28;20013;-72
2020/12/08 02:37:09;;;;;;;8.10;2.72;;;15.90;36.00;;;;;;1039238;28;20025;-73
2020/12/08 02:37:41;;;;;;;7.13;2.70;;;15.80;35.80;;;;;;1043002;28;20024;-73
2020/12/08 02:38:12;;;;;;;8.00;2.60;;;15.90;35.80;;;;;;1040653;28;20017;-73
2020/12/08 02:38:44;;;;;;;8.05;2.47;;;15.90;35.80;;;;;;1039700;28;20443;-72
2020/12/08 02:39:15;;;;;;;8.13;2.60;;;15.80;35.80;;;;;;1038379;28;20005;-72
2020/12/08 02:39:46;;;;;;;5.50;2.50;;;15.80;35.70;;;;;;1041073;28;20005;-73
2020/12/08 02:40:18;;;;;;;6.18;2.53;;;15.90;35.70;;;;;;1038809;28;20467;-73
2020/12/08 02:40:50;;;;;;;6.82;2.40;;;15.80;35.80;;;;;;1039905;28;20033;-73
2020/12/08 02:41:30;;;;;;;7.03;2.50;;;15.90;35.90;;;;;;1039633;28;20040;-73
2020/12/08 02:42:01;;;;;;;5.30;2.33;;;15.80;36.00;;;;;;1040940;28;20037;-73
2020/12/08 02:42:33;;;;;;;8.25;2.58;;;15.80;36.10;;;;;;1041737;28;21784;-72
2020/12/08 02:43:05;;;;;;;6.70;2.72;;;15.80;36.10;;;;;;1039514;28;20351;-73
2020/12/08 02:43:36;;;;;;;6.32;2.40;;;15.80;36.10;;;;;;1039318;28;20009;-73
2020/12/08 02:44:08;;;;;;;5.18;2.40;;;15.90;36.20;;;;;;1039455;28;20017;-72
2020/12/08 02:44:39;;;;;;;6.00;2.40;;;15.90;36.20;;;;;;1038732;28;20451;-72
2020/12/08 02:45:12;;;;;;;10.27;2.60;;;15.90;36.20;;;;;;1036349;28;20344;-73
2020/12/08 02:45:44;;;;;;;6.43;2.25;;;15.80;36.10;;;;;;1036845;28;20460;-72